Holmes Mill, Kentucky
Current Conditions -  °F | °C
As of 10:35 AM on Thursday 23 Oct 2014 (Local Time) from K0VG Reporting Station
Overcast Overcast  
Wind Chill: 50°   Ceiling: 2700
Heat Index: 50°   Visibility: 10mi
Dew Point: 37°   Wind: 3mph
Humidity: 62%   Direction: 100°E
Pressure: 30.25"   Gusts: NA
Location:  36.87°N, 83.01°W
Report Text: K0VG 231435Z AUTO 10003KT 10SM OVC027 10/03 A3025 RMK AO2
Loading
Personal Weather Stations






























Interactive Weather Map
Tropical Storm Tracking
New forecast layout! Learn more

10-Day Weather Forecast

Advertisements
Track Severe Weather on mobile